sensor_id;sensor_type;location;lat;lon;timestamp;pressure;altitude;pressure_sealevel;temperature;humidity
74716;BME280;63234;37.558;127.058;2024-01-11T00:01:59;101174.78;;;-3.17;69.36
74716;BME280;63234;37.558;127.058;2024-01-11T00:04:24;101177.19;;;-3.27;68.99
74716;BME280;63234;37.558;127.058;2024-01-11T00:06:50;101173.03;;;-3.16;68.64
74716;BME280;63234;37.558;127.058;2024-01-11T00:09:16;101174.78;;;-3.17;68.64
74716;BME280;63234;37.558;127.058;2024-01-11T00:11:41;101174.47;;;-3.12;68.72
74716;BME280;63234;37.558;127.058;2024-01-11T00:14:07;101178.66;;;-3.35;68.98
74716;BME280;63234;37.558;127.058;2024-01-11T00:16:32;101182.53;;;-3.28;69.31
74716;BME280;63234;37.558;127.058;2024-01-11T00:18:58;101182.41;;;-3.39;69.39
74716;BME280;63234;37.558;127.058;2024-01-11T00:21:23;101177.41;;;-3.30;69.69
74716;BME280;63234;37.558;127.058;2024-01-11T00:23:49;101181.06;;;-3.58;69.21
74716;BME280;63234;37.558;127.058;2024-01-11T00:26:14;101178.59;;;-3.47;69.42
74716;BME280;63234;37.558;127.058;2024-01-11T00:28:40;101180.75;;;-3.28;69.56
74716;BME280;63234;37.558;127.058;2024-01-11T00:31:05;101174.81;;;-3.42;69.22
74716;BME280;63234;37.558;127.058;2024-01-11T00:33:31;101177.94;;;-3.37;69.26
74716;BME280;63234;37.558;127.058;2024-01-11T00:35:58;101174.50;;;-3.25;69.48
74716;BME280;63234;37.558;127.058;2024-01-11T00:38:23;101168.25;;;-3.22;68.92
74716;BME280;63234;37.558;127.058;2024-01-11T00:40:49;101171.50;;;-3.44;69.66
74716;BME280;63234;37.558;127.058;2024-01-11T00:43:14;101172.75;;;-3.63;69.41
74716;BME280;63234;37.558;127.058;2024-01-11T00:45:40;101176.91;;;-3.48;69.50
74716;BME280;63234;37.558;127.058;2024-01-11T00:48:05;101169.09;;;-3.48;69.71
74716;BME280;63234;37.558;127.058;2024-01-11T00:50:31;101172.97;;;-3.40;69.23
74716;BME280;63234;37.558;127.058;2024-01-11T00:52:56;101171.91;;;-3.38;69.43
74716;BME280;63234;37.558;127.058;2024-01-11T00:55:22;101170.97;;;-3.24;68.94
74716;BME280;63234;37.558;127.058;2024-01-11T00:57:47;101174.06;;;-3.32;68.88
74716;BME280;63234;37.558;127.058;2024-01-11T01:00:13;101169.84;;;-3.58;68.95
74716;BME280;63234;37.558;127.058;2024-01-11T01:02:39;101175.25;;;-3.49;69.61
74716;BME280;63234;37.558;127.058;2024-01-11T01:05:05;101181.91;;;-3.57;69.93
74716;BME280;63234;37.558;127.058;2024-01-11T01:07:31;101179.72;;;-3.76;70.46
74716;BME280;63234;37.558;127.058;2024-01-11T01:09:57;101175.13;;;-3.73;70.18
74716;BME280;63234;37.558;127.058;2024-01-11T01:12:22;101178.06;;;-3.64;70.36
74716;BME280;63234;37.558;127.058;2024-01-11T01:14:47;101183.47;;;-3.67;70.52
74716;BME280;63234;37.558;127.058;2024-01-11T01:17:13;101183.06;;;-3.74;70.37
74716;BME280;63234;37.558;127.058;2024-01-11T01:19:38;101183.53;;;-3.95;70.29
74716;BME280;63234;37.558;127.058;2024-01-11T01:22:03;101186.16;;;-3.82;70.71
74716;BME280;63234;37.558;127.058;2024-01-11T01:24:30;101187.59;;;-3.90;70.05
74716;BME280;63234;37.558;127.058;2024-01-11T01:26:55;101192.16;;;-3.81;70.22
74716;BME280;63234;37.558;127.058;2024-01-11T01:29:21;101190.72;;;-3.85;71.27
74716;BME280;63234;37.558;127.058;2024-01-11T01:31:46;101188.94;;;-3.98;70.75
74716;BME280;63234;37.558;127.058;2024-01-11T01:34:11;101197.66;;;-3.99;71.32
74716;BME280;63234;37.558;127.058;2024-01-11T01:36:37;101208.63;;;-4.08;71.67
74716;BME280;63234;37.558;127.058;2024-01-11T01:39:02;101204.53;;;-3.98;70.88
74716;BME280;63234;37.558;127.058;2024-01-11T01:41:28;101212.47;;;-3.86;70.95
74716;BME280;63234;37.558;127.058;2024-01-11T01:43:53;101201.13;;;-4.25;71.97
74716;BME280;63234;37.558;127.058;2024-01-11T01:46:22;101213.97;;;-4.36;72.70
74716;BME280;63234;37.558;127.058;2024-01-11T01:48:49;101213.38;;;-4.54;72.76
74716;BME280;63234;37.558;127.058;2024-01-11T01:51:14;101215.22;;;-4.83;74.58
74716;BME280;63234;37.558;127.058;2024-01-11T01:53:40;101221.19;;;-4.69;74.19
74716;BME280;63234;37.558;127.058;2024-01-11T01:56:06;101226.56;;;-4.72;73.92
74716;BME280;63234;37.558;127.058;2024-01-11T01:58:33;101224.69;;;-5.25;76.31
74716;BME280;63234;37.558;127.058;2024-01-11T02:00:58;101229.31;;;-5.16;76.49
74716;BME280;63234;37.558;127.058;2024-01-11T02:03:27;101228.38;;;-4.87;75.06
74716;BME280;63234;37.558;127.058;2024-01-11T02:05:54;101221.53;;;-5.02;75.42
74716;BME280;63234;37.558;127.058;2024-01-11T02:08:22;101215.69;;;-5.05;76.23
74716;BME280;63234;37.558;127.058;2024-01-11T02:10:48;101224.13;;;-5.16;76.63
74716;BME280;63234;37.558;127.058;2024-01-11T02:13:14;101213.47;;;-5.40;77.34
74716;BME280;63234;37.558;127.058;2024-01-11T02:15:39;101212.03;;;-5.60;77.28
74716;BME280;63234;37.558;127.058;2024-01-11T02:18:05;101214.28;;;-5.40;76.94
74716;BME280;63234;37.558;127.058;2024-01-11T02:20:31;101223.38;;;-5.33;76.53
74716;BME280;63234;37.558;127.058;2024-01-11T02:23:01;101216.88;;;-5.40;76.90
74716;BME280;63234;37.558;127.058;2024-01-11T02:25:30;101217.38;;;-5.47;77.04
74716;BME280;63234;37.558;127.058;2024-01-11T02:27:55;101223.91;;;-5.56;77.15
74716;BME280;63234;37.558;127.058;2024-01-11T02:30:20;101221.88;;;-5.51;77.00
74716;BME280;63234;37.558;127.058;2024-01-11T02:32:47;101220.41;;;-5.26;76.83
74716;BME280;63234;37.558;127.058;2024-01-11T02:35:16;101223.75;;;-5.24;76.19
74716;BME280;63234;37.558;127.058;2024-01-11T02:37:43;101220.59;;;-5.30;76.54
74716;BME280;63234;37.558;127.058;2024-01-11T02:40:09;101217.25;;;-5.46;78.35
74716;BME280;63234;37.558;127.058;2024-01-11T02:42:35;101217.41;;;-5.63;78.73
74716;BME280;63234;37.558;127.058;2024-01-11T02:45:03;101219.53;;;-5.70;79.48
74716;BME280;63234;37.558;127.058;2024-01-11T02:47:28;101218.06;;;-5.74;79.84
74716;BME280;63234;37.558;127.058;2024-01-11T02:49:54;101221.94;;;-5.81;79.96
74716;BME280;63234;37.558;127.058;2024-01-11T02:52:19;101218.47;;;-5.82;79.36
74716;BME280;63234;37.558;127.058;2024-01-11T02:54:44;101223.66;;;-5.82;79.08
74716;BME280;63234;37.558;127.058;2024-01-11T02:57:10;101223.13;;;-5.87;79.75
74716;BME280;63234;37.558;127.058;2024-01-11T02:59:36;101213.13;;;-5.93;79.90
74716;BME280;63234;37.558;127.058;2024-01-11T03:02:01;101218.31;;;-5.93;79.69
74716;BME280;63234;37.558;127.058;2024-01-11T03:04:27;101222.53;;;-5.92;79.25
74716;BME280;63234;37.558;127.058;2024-01-11T03:06:52;101221.34;;;-5.86;79.55
74716;BME280;63234;37.558;127.058;2024-01-11T03:09:17;101219.34;;;-5.81;78.92
74716;BME280;63234;37.558;127.058;2024-01-11T03:11:43;101202.78;;;-5.64;78.28
74716;BME280;63234;37.558;127.058;2024-01-11T03:14:08;101202.97;;;-5.67;78.20
74716;BME280;63234;37.558;127.058;2024-01-11T03:16:33;101204.66;;;-5.52;77.47
74716;BME280;63234;37.558;127.058;2024-01-11T03:18:59;101209.69;;;-5.35;76.74
74716;BME280;63234;37.558;127.058;2024-01-11T03:21:24;101202.09;;;-5.23;76.29
74716;BME280;63234;37.558;127.058;2024-01-11T03:23:50;101204.50;;;-5.20;76.50
74716;BME280;63234;37.558;127.058;2024-01-11T03:26:16;101205.34;;;-5.20;76.18
74716;BME280;63234;37.558;127.058;2024-01-11T03:28:42;101197.06;;;-5.12;75.81
74716;BME280;63234;37.558;127.058;2024-01-11T03:31:10;101202.81;;;-5.21;76.61
74716;BME280;63234;37.558;127.058;2024-01-11T03:33:36;101198.38;;;-5.19;76.70
74716;BME280;63234;37.558;127.058;2024-01-11T03:36:11;101185.75;;;-4.97;76.08
74716;BME280;63234;37.558;127.058;2024-01-11T03:38:37;101187.72;;;-5.15;76.63
74716;BME280;63234;37.558;127.058;2024-01-11T03:41:08;101187.81;;;-5.31;76.61
74716;BME280;63234;37.558;127.058;2024-01-11T03:43:35;101177.63;;;-5.19;76.50
74716;BME280;63234;37.558;127.058;2024-01-11T03:46:00;101175.31;;;-5.10;75.89
74716;BME280;63234;37.558;127.058;2024-01-11T03:48:26;101173.91;;;-5.15;75.97
74716;BME280;63234;37.558;127.058;2024-01-11T03:50:51;101173.72;;;-5.26;76.52
74716;BME280;63234;37.558;127.058;2024-01-11T03:53:17;101170.41;;;-5.14;76.50
74716;BME280;63234;37.558;127.058;2024-01-11T03:55:42;101174.28;;;-5.07;76.05
74716;BME280;63234;37.558;127.058;2024-01-11T03:58:07;101178.56;;;-5.35;76.87
74716;BME280;63234;37.558;127.058;2024-01-11T04:00:33;101175.13;;;-5.07;76.23
74716;BME280;63234;37.558;127.058;2024-01-11T04:02:58;101181.13;;;-5.06;76.03
74716;BME280;63234;37.558;127.058;2024-01-11T04:05:24;101182.72;;;-5.03;75.63
74716;BME280;63234;37.558;127.058;2024-01-11T04:07:49;101178.38;;;-5.17;75.75
74716;BME280;63234;37.558;127.058;2024-01-11T04:10:17;101176.25;;;-5.25;76.67
74716;BME280;63234;37.558;127.058;2024-01-11T04:12:42;101186.06;;;-5.16;75.88
74716;BME280;63234;37.558;127.058;2024-01-11T04:15:08;101187.63;;;-5.13;76.82
74716;BME280;63234;37.558;127.058;2024-01-11T04:17:33;101189.06;;;-4.80;75.36
74716;BME280;63234;37.558;127.058;2024-01-11T04:19:59;101185.34;;;-4.76;74.58
74716;BME280;63234;37.558;127.058;2024-01-11T04:22:24;101189.72;;;-4.77;75.08
74716;BME280;63234;37.558;127.058;2024-01-11T04:24:49;101178.31;;;-4.74;74.55
74716;BME280;63234;37.558;127.058;2024-01-11T04:27:15;101181.88;;;-4.90;75.17
74716;BME280;63234;37.558;127.058;2024-01-11T04:29:40;101189.09;;;-5.09;75.91
74716;BME280;63234;37.558;127.058;2024-01-11T04:32:05;101191.75;;;-4.96;75.55
74716;BME280;63234;37.558;127.058;2024-01-11T04:34:31;101188.34;;;-4.97;75.30
74716;BME280;63234;37.558;127.058;2024-01-11T04:36:56;101192.06;;;-4.87;75.39
74716;BME280;63234;37.558;127.058;2024-01-11T04:39:21;101194.59;;;-4.72;74.72
74716;BME280;63234;37.558;127.058;2024-01-11T04:41:47;101182.75;;;-4.76;74.44
74716;BME280;63234;37.558;127.058;2024-01-11T04:44:13;101185.16;;;-4.73;74.36
74716;BME280;63234;37.558;127.058;2024-01-11T04:46:38;101179.13;;;-4.74;73.97
74716;BME280;63234;37.558;127.058;2024-01-11T04:49:03;101179.72;;;-4.83;74.21
74716;BME280;63234;37.558;127.058;2024-01-11T04:51:29;101171.97;;;-5.12;75.82
74716;BME280;63234;37.558;127.058;2024-01-11T04:53:54;101168.66;;;-5.14;76.27
74716;BME280;63234;37.558;127.058;2024-01-11T04:56:19;101176.34;;;-5.41;77.26
74716;BME280;63234;37.558;127.058;2024-01-11T04:58:45;101184.09;;;-5.26;76.50
74716;BME280;63234;37.558;127.058;2024-01-11T05:01:12;101170.22;;;-5.11;76.45
74716;BME280;63234;37.558;127.058;2024-01-11T05:03:38;101174.66;;;-5.27;76.36
74716;BME280;63234;37.558;127.058;2024-01-11T05:06:03;101170.03;;;-5.22;76.97
74716;BME280;63234;37.558;127.058;2024-01-11T05:08:29;101177.63;;;-5.34;76.29
74716;BME280;63234;37.558;127.058;2024-01-11T05:10:55;101178.94;;;-5.41;77.01
74716;BME280;63234;37.558;127.058;2024-01-11T05:13:20;101182.00;;;-5.34;76.83
74716;BME280;63234;37.558;127.058;2024-01-11T05:15:46;101183.38;;;-5.28;76.42
74716;BME280;63234;37.558;127.058;2024-01-11T05:18:12;101180.41;;;-5.22;76.69
74716;BME280;63234;37.558;127.058;2024-01-11T05:20:37;101180.22;;;-5.05;76.19
74716;BME280;63234;37.558;127.058;2024-01-11T05:23:03;101192.69;;;-4.97;76.08
74716;BME280;63234;37.558;127.058;2024-01-11T05:25:29;101193.06;;;-4.89;75.51
74716;BME280;63234;37.558;127.058;2024-01-11T05:27:59;101186.31;;;-5.06;75.26
74716;BME280;63234;37.558;127.058;2024-01-11T05:30:24;101197.34;;;-5.02;75.52
74716;BME280;63234;37.558;127.058;2024-01-11T05:32:49;101187.25;;;-4.93;75.12
74716;BME280;63234;37.558;127.058;2024-01-11T05:35:15;101197.31;;;-4.88;74.63
74716;BME280;63234;37.558;127.058;2024-01-11T05:37:40;101203.53;;;-4.91;75.23
74716;BME280;63234;37.558;127.058;2024-01-11T05:40:06;101208.00;;;-5.07;75.14
74716;BME280;63234;37.558;127.058;2024-01-11T05:42:32;101209.09;;;-4.82;74.91
74716;BME280;63234;37.558;127.058;2024-01-11T05:44:58;101203.84;;;-5.10;75.94
74716;BME280;63234;37.558;127.058;2024-01-11T05:47:23;101214.53;;;-4.87;74.92
74716;BME280;63234;37.558;127.058;2024-01-11T05:49:49;101213.72;;;-4.88;74.82
74716;BME280;63234;37.558;127.058;2024-01-11T05:52:15;101216.06;;;-4.97;75.08
74716;BME280;63234;37.558;127.058;2024-01-11T05:54:40;101218.19;;;-4.90;75.03
74716;BME280;63234;37.558;127.058;2024-01-11T05:57:05;101220.94;;;-4.78;74.53
74716;BME280;63234;37.558;127.058;2024-01-11T05:59:32;101228.06;;;-4.82;74.41
74716;BME280;63234;37.558;127.058;2024-01-11T06:01:58;101225.22;;;-5.06;75.12
74716;BME280;63234;37.558;127.058;2024-01-11T06:04:26;101228.00;;;-5.09;76.26
74716;BME280;63234;37.558;127.058;2024-01-11T06:06:51;101218.47;;;-5.23;76.75
74716;BME280;63234;37.558;127.058;2024-01-11T06:09:17;101220.69;;;-5.17;75.81
74716;BME280;63234;37.558;127.058;2024-01-11T06:11:42;101217.94;;;-5.14;75.72
74716;BME280;63234;37.558;127.058;2024-01-11T06:14:07;101223.38;;;-5.18;76.59
74716;BME280;63234;37.558;127.058;2024-01-11T06:16:33;101226.44;;;-5.26;76.29
74716;BME280;63234;37.558;127.058;2024-01-11T06:18:58;101220.88;;;-5.34;76.89
74716;BME280;63234;37.558;127.058;2024-01-11T06:21:24;101221.25;;;-5.26;77.15
74716;BME280;63234;37.558;127.058;2024-01-11T06:23:49;101225.13;;;-5.33;77.22
74716;BME280;63234;37.558;127.058;2024-01-11T06:26:15;101221.53;;;-5.16;76.94
74716;BME280;63234;37.558;127.058;2024-01-11T06:28:40;101225.97;;;-5.33;77.57
74716;BME280;63234;37.558;127.058;2024-01-11T06:31:05;101223.47;;;-5.34;77.40
74716;BME280;63234;37.558;127.058;2024-01-11T06:33:31;101220.25;;;-5.23;77.32
74716;BME280;63234;37.558;127.058;2024-01-11T06:35:58;101226.91;;;-5.19;77.12
74716;BME280;63234;37.558;127.058;2024-01-11T06:38:23;101221.25;;;-4.97;76.24
74716;BME280;63234;37.558;127.058;2024-01-11T06:40:49;101222.63;;;-5.06;76.24
74716;BME280;63234;37.558;127.058;2024-01-11T06:43:14;101218.38;;;-5.07;76.03
74716;BME280;63234;37.558;127.058;2024-01-11T06:45:42;101224.88;;;-5.28;77.14
74716;BME280;63234;37.558;127.058;2024-01-11T06:48:07;101239.09;;;-5.50;78.04
74716;BME280;63234;37.558;127.058;2024-01-11T06:50:33;101241.31;;;-5.30;77.31
74716;BME280;63234;37.558;127.058;2024-01-11T06:52:59;101243.56;;;-5.38;77.54
74716;BME280;63234;37.558;127.058;2024-01-11T06:55:24;101237.88;;;-5.59;78.20
74716;BME280;63234;37.558;127.058;2024-01-11T06:57:50;101244.41;;;-5.37;77.81
74716;BME280;63234;37.558;127.058;2024-01-11T07:00:15;101251.16;;;-5.35;77.84
74716;BME280;63234;37.558;127.058;2024-01-11T07:02:40;101253.19;;;-5.25;77.43
74716;BME280;63234;37.558;127.058;2024-01-11T07:05:06;101256.06;;;-5.44;78.04
74716;BME280;63234;37.558;127.058;2024-01-11T07:07:32;101263.16;;;-5.48;78.10
74716;BME280;63234;37.558;127.058;2024-01-11T07:09:58;101260.38;;;-5.59;78.35
74716;BME280;63234;37.558;127.058;2024-01-11T07:12:24;101265.09;;;-5.82;79.39
74716;BME280;63234;37.558;127.058;2024-01-11T07:14:51;101259.94;;;-5.82;80.08
74716;BME280;63234;37.558;127.058;2024-01-11T07:17:16;101265.00;;;-5.94;80.20
74716;BME280;63234;37.558;127.058;2024-01-11T07:19:42;101268.88;;;-6.02;80.12
74716;BME280;63234;37.558;127.058;2024-01-11T07:22:07;101261.94;;;-6.01;80.19
74716;BME280;63234;37.558;127.058;2024-01-11T07:24:32;101263.56;;;-6.14;80.94
74716;BME280;63234;37.558;127.058;2024-01-11T07:27:06;101270.75;;;-6.19;81.68
74716;BME280;63234;37.558;127.058;2024-01-11T07:29:32;101271.66;;;-5.90;80.75
74716;BME280;63234;37.558;127.058;2024-01-11T07:31:58;101265.19;;;-5.97;81.54
74716;BME280;63234;37.558;127.058;2024-01-11T07:34:24;101276.72;;;-6.03;81.27
74716;BME280;63234;37.558;127.058;2024-01-11T07:36:49;101278.16;;;-6.13;81.71
74716;BME280;63234;37.558;127.058;2024-01-11T07:39:15;101278.75;;;-6.08;81.09
74716;BME280;63234;37.558;127.058;2024-01-11T07:41:40;101276.56;;;-6.00;81.10
74716;BME280;63234;37.558;127.058;2024-01-11T07:44:06;101275.47;;;-5.96;81.48
74716;BME280;63234;37.558;127.058;2024-01-11T07:46:31;101280.59;;;-5.80;80.72
74716;BME280;63234;37.558;127.058;2024-01-11T07:48:56;101292.06;;;-5.70;79.82
74716;BME280;63234;37.558;127.058;2024-01-11T07:51:24;101291.53;;;-5.75;80.28
74716;BME280;63234;37.558;127.058;2024-01-11T07:53:50;101288.94;;;-5.75;80.26
74716;BME280;63234;37.558;127.058;2024-01-11T07:56:16;101292.38;;;-5.60;79.48
74716;BME280;63234;37.558;127.058;2024-01-11T07:58:42;101292.28;;;-5.28;78.62
74716;BME280;63234;37.558;127.058;2024-01-11T08:01:09;101301.28;;;-5.20;78.33
74716;BME280;63234;37.558;127.058;2024-01-11T08:03:34;101304.06;;;-5.23;78.16
74716;BME280;63234;37.558;127.058;2024-01-11T08:06:00;101304.59;;;-5.32;78.41
74716;BME280;63234;37.558;127.058;2024-01-11T08:08:26;101311.50;;;-5.33;78.49
74716;BME280;63234;37.558;127.058;2024-01-11T08:10:51;101316.28;;;-5.11;78.13
74716;BME280;63234;37.558;127.058;2024-01-11T08:13:18;101320.47;;;-4.94;77.48
74716;BME280;63234;37.558;127.058;2024-01-11T08:15:43;101325.28;;;-4.88;77.13
74716;BME280;63234;37.558;127.058;2024-01-11T08:18:09;101326.28;;;-4.90;77.52
74716;BME280;63234;37.558;127.058;2024-01-11T08:20:35;101334.38;;;-4.80;76.88
74716;BME280;63234;37.558;127.058;2024-01-11T08:23:00;101321.03;;;-4.89;76.94
74716;BME280;63234;37.558;127.058;2024-01-11T08:25:26;101339.09;;;-4.58;76.00
74716;BME280;63234;37.558;127.058;2024-01-11T08:27:51;101333.59;;;-4.54;76.21
74716;BME280;63234;37.558;127.058;2024-01-11T08:30:16;101336.56;;;-4.46;76.12
74716;BME280;63234;37.558;127.058;2024-01-11T08:32:42;101333.34;;;-4.35;75.51
74716;BME280;63234;37.558;127.058;2024-01-11T08:35:11;101331.94;;;-4.41;76.67
74716;BME280;63234;37.558;127.058;2024-01-11T08:37:37;101340.00;;;-3.89;75.29
74716;BME280;63234;37.558;127.058;2024-01-11T08:40:02;101348.00;;;-3.53;74.27
74716;BME280;63234;37.558;127.058;2024-01-11T08:42:30;101342.22;;;-3.43;72.66
74716;BME280;63234;37.558;127.058;2024-01-11T08:44:55;101335.94;;;-3.54;73.16
74716;BME280;63234;37.558;127.058;2024-01-11T08:47:21;101339.06;;;-3.49;73.24
74716;BME280;63234;37.558;127.058;2024-01-11T08:49:46;101346.41;;;-3.28;72.46
74716;BME280;63234;37.558;127.058;2024-01-11T08:52:12;101339.84;;;-3.21;71.71
74716;BME280;63234;37.558;127.058;2024-01-11T08:54:37;101336.00;;;-3.28;73.18
74716;BME280;63234;37.558;127.058;2024-01-11T08:57:02;101338.72;;;-2.91;71.62
74716;BME280;63234;37.558;127.058;2024-01-11T08:59:28;101340.34;;;-2.65;71.07
74716;BME280;63234;37.558;127.058;2024-01-11T09:01:53;101343.03;;;-2.28;69.04
74716;BME280;63234;37.558;127.058;2024-01-11T09:04:19;101343.72;;;-2.26;69.18
74716;BME280;63234;37.558;127.058;2024-01-11T09:06:44;101345.69;;;-2.17;68.38
74716;BME280;63234;37.558;127.058;2024-01-11T09:09:13;101335.69;;;-2.23;68.84
74716;BME280;63234;37.558;127.058;2024-01-11T09:11:39;101335.00;;;-2.25;68.63
74716;BME280;63234;37.558;127.058;2024-01-11T09:14:06;101343.69;;;-2.63;69.95
74716;BME280;63234;37.558;127.058;2024-01-11T09:16:31;101339.13;;;-2.72;70.57
74716;BME280;63234;37.558;127.058;2024-01-11T09:18:57;101342.56;;;-2.84;71.26
74716;BME280;63234;37.558;127.058;2024-01-11T09:21:22;101337.88;;;-2.79;71.18
74716;BME280;63234;37.558;127.058;2024-01-11T09:23:47;101330.47;;;-2.72;70.51
74716;BME280;63234;37.558;127.058;2024-01-11T09:26:13;101345.56;;;-2.78;70.74
74716;BME280;63234;37.558;127.058;2024-01-11T09:28:38;101351.72;;;-2.66;70.06
74716;BME280;63234;37.558;127.058;2024-01-11T09:31:04;101345.88;;;-2.69;70.08
74716;BME280;63234;37.558;127.058;2024-01-11T09:33:29;101340.06;;;-2.73;70.87
74716;BME280;63234;37.558;127.058;2024-01-11T09:35:54;101347.97;;;-2.74;71.02
74716;BME280;63234;37.558;127.058;2024-01-11T09:38:21;101341.91;;;-2.62;70.82
74716;BME280;63234;37.558;127.058;2024-01-11T09:40:57;101338.28;;;-2.60;71.08
74716;BME280;63234;37.558;127.058;2024-01-11T09:43:25;101343.25;;;-2.57;70.37
74716;BME280;63234;37.558;127.058;2024-01-11T09:45:52;101346.03;;;-2.21;69.43
74716;BME280;63234;37.558;127.058;2024-01-11T09:48:19;101344.16;;;-1.95;69.55
74716;BME280;63234;37.558;127.058;2024-01-11T09:50:45;101342.72;;;-1.75;68.54
74716;BME280;63234;37.558;127.058;2024-01-11T09:53:13;101348.28;;;-0.98;66.70
74716;BME280;63234;37.558;127.058;2024-01-11T09:55:39;101350.66;;;-0.28;64.39
74716;BME280;63234;37.558;127.058;2024-01-11T09:58:05;101354.91;;;-0.04;63.88
74716;BME280;63234;37.558;127.058;2024-01-11T10:00:31;101355.66;;;-0.25;63.31
74716;BME280;63234;37.558;127.058;2024-01-11T10:02:57;101352.59;;;-0.52;65.00
74716;BME280;63234;37.558;127.058;2024-01-11T10:05:22;101343.59;;;-0.48;64.24
74716;BME280;63234;37.558;127.058;2024-01-11T10:07:48;101346.06;;;0.19;62.64
74716;BME280;63234;37.558;127.058;2024-01-11T10:10:13;101340.88;;;-0.03;62.98
74716;BME280;63234;37.558;127.058;2024-01-11T10:12:41;101349.88;;;-0.39;63.81
74716;BME280;63234;37.558;127.058;2024-01-11T10:15:08;101333.78;;;-0.12;63.22
74716;BME280;63234;37.558;127.058;2024-01-11T10:17:36;101341.44;;;0.76;61.86
74716;BME280;63234;37.558;127.058;2024-01-11T10:20:01;101342.38;;;0.75;60.84
74716;BME280;63234;37.558;127.058;2024-01-11T10:22:28;101336.38;;;0.63;60.67
74716;BME280;63234;37.558;127.058;2024-01-11T10:25:14;101334.19;;;0.68;61.21
74716;BME280;63234;37.558;127.058;2024-01-11T10:27:41;101329.63;;;1.74;58.68
74716;BME280;63234;37.558;127.058;2024-01-11T10:30:11;101326.91;;;2.14;56.45
74716;BME280;63234;37.558;127.058;2024-01-11T10:32:38;101331.97;;;2.93;54.85
74716;BME280;63234;37.558;127.058;2024-01-11T10:35:04;101330.47;;;1.94;57.33
74716;BME280;63234;37.558;127.058;2024-01-11T10:37:33;101332.88;;;2.45;55.62
74716;BME280;63234;37.558;127.058;2024-01-11T10:40:02;101325.41;;;2.50;55.25
74716;BME280;63234;37.558;127.058;2024-01-11T10:42:31;101326.44;;;2.96;54.71
74716;BME280;63234;37.558;127.058;2024-01-11T10:44:59;101332.44;;;2.21;55.17
74716;BME280;63234;37.558;127.058;2024-01-11T10:47:30;101319.16;;;1.93;56.78
74716;BME280;63234;37.558;127.058;2024-01-11T10:49:57;101316.25;;;2.06;56.27
74716;BME280;63234;37.558;127.058;2024-01-11T10:52:28;101320.75;;;3.11;54.34
74716;BME280;63234;37.558;127.058;2024-01-11T10:54:59;101315.94;;;3.34;52.66
74716;BME280;63234;37.558;127.058;2024-01-11T10:57:27;101316.97;;;3.23;53.16
74716;BME280;63234;37.558;127.058;2024-01-11T10:59:54;101317.75;;;3.33;52.71
74716;BME280;63234;37.558;127.058;2024-01-11T11:02:21;101310.84;;;3.32;52.46
74716;BME280;63234;37.558;127.058;2024-01-11T11:04:50;101319.78;;;3.39;52.95
74716;BME280;63234;37.558;127.058;2024-01-11T11:07:16;101317.78;;;3.24;52.57
74716;BME280;63234;37.558;127.058;2024-01-11T11:09:44;101312.84;;;3.11;53.11
74716;BME280;63234;37.558;127.058;2024-01-11T11:12:10;101307.53;;;2.83;54.20
74716;BME280;63234;37.558;127.058;2024-01-11T11:14:36;101303.63;;;3.34;53.40
74716;BME280;63234;37.558;127.058;2024-01-11T11:17:03;101308.88;;;4.25;50.33
74716;BME280;63234;37.558;127.058;2024-01-11T11:19:29;101306.75;;;4.47;50.58
74716;BME280;63234;37.558;127.058;2024-01-11T11:21:55;101299.63;;;3.58;51.33
74716;BME280;63234;37.558;127.058;2024-01-11T11:24:20;101310.38;;;3.64;51.32
74716;BME280;63234;37.558;127.058;2024-01-11T11:26:46;101302.03;;;3.97;51.70
74716;BME280;63234;37.558;127.058;2024-01-11T11:29:12;101304.66;;;3.79;51.89
74716;BME280;63234;37.558;127.058;2024-01-11T11:31:41;101315.66;;;4.28;50.17
74716;BME280;63234;37.558;127.058;2024-01-11T11:34:10;101314.56;;;5.00;49.27
74716;BME280;63234;37.558;127.058;2024-01-11T11:36:36;101320.66;;;4.75;48.48
74716;BME280;63234;37.558;127.058;2024-01-11T11:39:02;101309.69;;;4.44;48.95
74716;BME280;63234;37.558;127.058;2024-01-11T11:41:30;101300.09;;;5.39;47.54
74716;BME280;63234;37.558;127.058;2024-01-11T11:44:03;101303.69;;;5.80;47.01
74716;BME280;63234;37.558;127.058;2024-01-11T11:46:29;101302.38;;;5.76;46.13
74716;BME280;63234;37.558;127.058;2024-01-11T11:48:56;101308.59;;;6.34;45.66
74716;BME280;63234;37.558;127.058;2024-01-11T11:51:23;101304.28;;;5.15;46.43
74716;BME280;63234;37.558;127.058;2024-01-11T11:53:50;101301.50;;;6.18;45.11
74716;BME280;63234;37.558;127.058;2024-01-11T11:56:20;101300.31;;;6.20;45.81
74716;BME280;63234;37.558;127.058;2024-01-11T11:58:47;101288.69;;;5.89;44.93
74716;BME280;63234;37.558;127.058;2024-01-11T12:01:14;101291.44;;;6.22;45.08
74716;BME280;63234;37.558;127.058;2024-01-11T12:03:43;101292.00;;;5.83;46.82
74716;BME280;63234;37.558;127.058;2024-01-11T12:06:15;101293.28;;;5.70;47.26
74716;BME280;63234;37.558;127.058;2024-01-11T12:08:44;101277.50;;;5.36;46.41
74716;BME280;63234;37.558;127.058;2024-01-11T12:11:19;101281.41;;;5.66;46.37
74716;BME280;63234;37.558;127.058;2024-01-11T12:13:47;101269.56;;;5.79;47.12
74716;BME280;63234;37.558;127.058;2024-01-11T12:16:12;101272.56;;;5.07;47.44
74716;BME280;63234;37.558;127.058;2024-01-11T12:18:38;101272.00;;;4.87;47.94
74716;BME280;63234;37.558;127.058;2024-01-11T12:21:04;101267.59;;;5.30;47.51
74716;BME280;63234;37.558;127.058;2024-01-11T12:23:30;101270.78;;;4.55;48.94
74716;BME280;63234;37.558;127.058;2024-01-11T12:26:00;101266.31;;;4.56;49.00
74716;BME280;63234;37.558;127.058;2024-01-11T12:28:26;101266.22;;;4.04;49.18